Terminal Aerodrome Forecast
Issued by NWS Sterling, VA

Current Version | Previous Version | Graphics & Text | Print | Product List | Glossary On
Versions: 1 2 3 4 5 6 7 8 9 10 11 12 13 14 15 16 17
082
FTUS41 KLWX 252340
TAFMRB
TAF
KMRB 252340Z 2600/2624 17004KT P6SM FEW050 SCT250
     FM260700 13004KT P6SM BKN035
     FM260900 12004KT P6SM BKN025
     FM261400 16008KT P6SM BKN025
     FM261700 16010G18KT P6SM BKN040=

USA.gov is the U.S. government's official web portal to all federal, state and local government web resources and services.